KRIL/RIL METAR and TAF weather

Enter ICAO airport designator
Station Type Date Time Source
KRIL METAR 2020/04/07 01:53 UTC NOAA

KRIL 070153Z AUTO 23009KT 10SM CLR 16/M10 A2988 RMK AO2 SLP086 T01611100


Station Type Date Time Source
KRIL Decoded METAR 2020/04/07 01:53 UTC NOAA

RIFLE GARFIELD COUNTY RGNL, CO, United States (KRIL) 39-31N 107-44W 1678M
Apr 06, 2020 - 09:53 PM EDT / 2020.04.07 0153 UTC
Wind: from the SW (230 degrees) at 10 MPH (9 KT):0
Visibility: 10 mile(s):0
Sky conditions: clear
Temperature: 61.0 F (16.1 C)
Dew Point: 14.0 F (-10.0 C)
Relative Humidity: 15%
Pressure (altimeter): 29.88 in. Hg (1011 hPa)
ob: KRIL 070153Z AUTO 23009KT 10SM CLR 16/M10 A2988 RMK AO2 SLP086 T01611100
cycle: 2

Station Type Date Time Source
KRIL TAF 2020/04/06 18:51 UTC NOAA

TAF KRIL 061744Z 0618/0718 30010KT P6SM FEW090 FEW250
FM061900 25014G25KT P6SM FEW090 SCT250
FM070200 23012KT P6SM SCT100 BKN250
FM071200 26008KT P6SM FEW100 SCT250

Example: see airport list